TXKF/BDA METAR and TAF weather

Enter ICAO airport designator
Station Type Date Time Source
TXKF METAR 2021/09/20 05:55 UTC NOAA

TXKF 200555Z 02009KT 9999 FEW029 26/20 Q1017


Station Type Date Time Source
TXKF Decoded METAR 2021/09/20 05:55 UTC NOAA

Bermuda, Bermuda (TXKF) 32-22N 064-41W
Sep 20, 2021 - 01:55 AM EDT / 2021.09.20 0555 UTC
Wind: from the NNE (020 degrees) at 10 MPH (9 KT):0
Visibility: greater than 7 mile(s):0
Sky conditions: mostly clear
Temperature: 78 F (26 C)
Dew Point: 68 F (20 C)
Relative Humidity: 69%
Pressure (altimeter): 30.03 in. Hg (1017 hPa)
ob: TXKF 200555Z 02009KT 9999 FEW029 26/20 Q1017
cycle: 6

Station Type Date Time Source
TXKF TAF 2021/09/20 06:47 UTC NOAA

TAF TXKF 200542Z 2006/2106 02012KT 9999 FEW025
BECMG 2016/2019 07012KT

Example: see airport list